sensor_id;sensor_type;location;lat;lon;timestamp;temperature;humidity
21502;DHT22;27639;48.674;9.242;2023-02-28T00:00:29;2.40;42.80
21502;DHT22;27639;48.674;9.242;2023-02-28T00:02:55;2.40;42.80
21502;DHT22;27639;48.674;9.242;2023-02-28T00:05:22;2.40;42.80
21502;DHT22;27639;48.674;9.242;2023-02-28T00:07:49;2.40;42.80
21502;DHT22;27639;48.674;9.242;2023-02-28T00:10:18;2.40;42.90
21502;DHT22;27639;48.674;9.242;2023-02-28T00:12:52;2.40;43.00
21502;DHT22;27639;48.674;9.242;2023-02-28T00:15:18;2.40;43.00
21502;DHT22;27639;48.674;9.242;2023-02-28T00:17:44;2.30;43.10
21502;DHT22;27639;48.674;9.242;2023-02-28T00:20:12;2.30;43.10
21502;DHT22;27639;48.674;9.242;2023-02-28T00:22:40;2.30;43.30
21502;DHT22;27639;48.674;9.242;2023-02-28T00:25:07;2.30;43.30
21502;DHT22;27639;48.674;9.242;2023-02-28T00:27:34;2.30;43.30
21502;DHT22;27639;48.674;9.242;2023-02-28T00:29:59;2.30;43.40
21502;DHT22;27639;48.674;9.242;2023-02-28T00:32:26;2.30;43.50
21502;DHT22;27639;48.674;9.242;2023-02-28T00:34:51;2.30;43.50
21502;DHT22;27639;48.674;9.242;2023-02-28T00:37:17;2.30;43.60
21502;DHT22;27639;48.674;9.242;2023-02-28T00:39:42;2.30;43.60
21502;DHT22;27639;48.674;9.242;2023-02-28T00:42:09;2.30;43.50
21502;DHT22;27639;48.674;9.242;2023-02-28T00:44:34;2.30;43.60
21502;DHT22;27639;48.674;9.242;2023-02-28T00:47:00;2.30;43.60
21502;DHT22;27639;48.674;9.242;2023-02-28T00:49:26;2.20;43.70
21502;DHT22;27639;48.674;9.242;2023-02-28T00:51:53;2.20;43.70
21502;DHT22;27639;48.674;9.242;2023-02-28T00:54:19;2.20;43.80
21502;DHT22;27639;48.674;9.242;2023-02-28T00:56:45;2.20;43.90
21502;DHT22;27639;48.674;9.242;2023-02-28T00:59:12;2.20;43.90
21502;DHT22;27639;48.674;9.242;2023-02-28T01:01:38;2.20;43.90
21502;DHT22;27639;48.674;9.242;2023-02-28T01:04:03;2.20;44.00
21502;DHT22;27639;48.674;9.242;2023-02-28T01:06:30;2.20;43.90
21502;DHT22;27639;48.674;9.242;2023-02-28T01:08:56;2.10;44.00
21502;DHT22;27639;48.674;9.242;2023-02-28T01:11:21;2.10;44.00
21502;DHT22;27639;48.674;9.242;2023-02-28T01:13:47;2.10;44.00
21502;DHT22;27639;48.674;9.242;2023-02-28T01:16:13;2.10;44.10
21502;DHT22;27639;48.674;9.242;2023-02-28T01:18:39;2.10;44.30
21502;DHT22;27639;48.674;9.242;2023-02-28T01:21:07;2.10;44.30
21502;DHT22;27639;48.674;9.242;2023-02-28T01:23:33;2.10;44.30
21502;DHT22;27639;48.674;9.242;2023-02-28T01:26:07;2.10;44.40
21502;DHT22;27639;48.674;9.242;2023-02-28T01:28:33;2.10;44.30
21502;DHT22;27639;48.674;9.242;2023-02-28T01:30:58;2.00;44.40
21502;DHT22;27639;48.674;9.242;2023-02-28T01:33:24;1.90;44.70
21502;DHT22;27639;48.674;9.242;2023-02-28T01:35:58;1.90;44.70
21502;DHT22;27639;48.674;9.242;2023-02-28T01:38:24;2.00;44.90
21502;DHT22;27639;48.674;9.242;2023-02-28T01:40:50;2.00;44.90
21502;DHT22;27639;48.674;9.242;2023-02-28T01:43:30;2.00;44.90
21502;DHT22;27639;48.674;9.242;2023-02-28T01:45:57;1.90;44.90
21502;DHT22;27639;48.674;9.242;2023-02-28T01:48:27;2.00;45.00
21502;DHT22;27639;48.674;9.242;2023-02-28T01:50:58;1.90;44.90
21502;DHT22;27639;48.674;9.242;2023-02-28T01:53:31;1.90;44.90
21502;DHT22;27639;48.674;9.242;2023-02-28T01:55:57;1.90;45.00
21502;DHT22;27639;48.674;9.242;2023-02-28T01:58:23;1.90;45.00
21502;DHT22;27639;48.674;9.242;2023-02-28T02:00:49;1.90;45.00
21502;DHT22;27639;48.674;9.242;2023-02-28T02:03:16;1.90;44.90
21502;DHT22;27639;48.674;9.242;2023-02-28T02:05:47;1.90;45.40
21502;DHT22;27639;48.674;9.242;2023-02-28T02:08:17;1.90;46.20
21502;DHT22;27639;48.674;9.242;2023-02-28T02:10:46;1.90;45.40
21502;DHT22;27639;48.674;9.242;2023-02-28T02:15:56;1.90;45.60
21502;DHT22;27639;48.674;9.242;2023-02-28T02:24:28;1.80;45.90
21502;DHT22;27639;48.674;9.242;2023-02-28T02:33:15;1.90;46.20
21502;DHT22;27639;48.674;9.242;2023-02-28T02:35:52;1.90;46.30
21502;DHT22;27639;48.674;9.242;2023-02-28T02:41:16;1.90;46.50
21502;DHT22;27639;48.674;9.242;2023-02-28T02:46:26;1.90;46.50
21502;DHT22;27639;48.674;9.242;2023-02-28T02:48:56;2.00;46.50
21502;DHT22;27639;48.674;9.242;2023-02-28T02:51:24;2.00;46.50
21502;DHT22;27639;48.674;9.242;2023-02-28T02:54:15;2.00;46.70
21502;DHT22;27639;48.674;9.242;2023-02-28T02:56:45;2.00;46.60
21502;DHT22;27639;48.674;9.242;2023-02-28T02:59:14;2.00;46.70
21502;DHT22;27639;48.674;9.242;2023-02-28T03:01:41;2.00;46.70
21502;DHT22;27639;48.674;9.242;2023-02-28T03:04:14;2.00;46.80
21502;DHT22;27639;48.674;9.242;2023-02-28T03:06:41;2.00;46.90
21502;DHT22;27639;48.674;9.242;2023-02-28T03:09:08;2.00;46.80
21502;DHT22;27639;48.674;9.242;2023-02-28T03:11:35;2.00;46.80
21502;DHT22;27639;48.674;9.242;2023-02-28T03:27:29;1.90;47.30
21502;DHT22;27639;48.674;9.242;2023-02-28T03:30:05;1.90;47.20
21502;DHT22;27639;48.674;9.242;2023-02-28T03:32:42;2.00;47.40
21502;DHT22;27639;48.674;9.242;2023-02-28T03:35:16;2.00;47.40
21502;DHT22;27639;48.674;9.242;2023-02-28T03:37:50;2.00;47.40
21502;DHT22;27639;48.674;9.242;2023-02-28T03:40:25;2.10;47.50
21502;DHT22;27639;48.674;9.242;2023-02-28T03:42:59;2.10;47.40
21502;DHT22;27639;48.674;9.242;2023-02-28T03:45:30;2.10;47.50
21502;DHT22;27639;48.674;9.242;2023-02-28T03:48:49;2.10;47.50
21502;DHT22;27639;48.674;9.242;2023-02-28T03:50:55;2.10;47.50
21502;DHT22;27639;48.674;9.242;2023-02-28T03:53:31;2.10;47.50
21502;DHT22;27639;48.674;9.242;2023-02-28T03:57:02;2.10;47.60
21502;DHT22;27639;48.674;9.242;2023-02-28T03:59:05;2.10;47.70
21502;DHT22;27639;48.674;9.242;2023-02-28T04:04:00;2.10;48.00
21502;DHT22;27639;48.674;9.242;2023-02-28T04:06:26;2.10;48.50
21502;DHT22;27639;48.674;9.242;2023-02-28T04:08:52;2.10;48.00
21502;DHT22;27639;48.674;9.242;2023-02-28T04:11:33;2.10;48.00
21502;DHT22;27639;48.674;9.242;2023-02-28T04:14:00;2.10;48.00
21502;DHT22;27639;48.674;9.242;2023-02-28T04:16:25;2.10;48.00
21502;DHT22;27639;48.674;9.242;2023-02-28T04:18:51;2.20;47.90
21502;DHT22;27639;48.674;9.242;2023-02-28T04:21:17;2.20;47.70
21502;DHT22;27639;48.674;9.242;2023-02-28T04:23:46;2.20;47.80
21502;DHT22;27639;48.674;9.242;2023-02-28T04:26:11;2.20;48.00
21502;DHT22;27639;48.674;9.242;2023-02-28T04:28:38;2.20;48.10
21502;DHT22;27639;48.674;9.242;2023-02-28T04:31:04;2.20;48.20
21502;DHT22;27639;48.674;9.242;2023-02-28T04:33:31;2.10;48.20
21502;DHT22;27639;48.674;9.242;2023-02-28T04:36:07;2.20;48.30
21502;DHT22;27639;48.674;9.242;2023-02-28T04:38:36;2.20;48.20
21502;DHT22;27639;48.674;9.242;2023-02-28T04:41:02;2.20;48.30
21502;DHT22;27639;48.674;9.242;2023-02-28T04:43:28;2.20;48.30
21502;DHT22;27639;48.674;9.242;2023-02-28T04:45:55;2.20;48.40
21502;DHT22;27639;48.674;9.242;2023-02-28T04:48:26;2.30;48.40
21502;DHT22;27639;48.674;9.242;2023-02-28T04:50:52;2.30;48.20
21502;DHT22;27639;48.674;9.242;2023-02-28T04:53:18;2.30;48.20
21502;DHT22;27639;48.674;9.242;2023-02-28T04:55:44;2.30;48.30
21502;DHT22;27639;48.674;9.242;2023-02-28T04:58:10;2.20;48.30
21502;DHT22;27639;48.674;9.242;2023-02-28T05:00:36;2.20;48.40
21502;DHT22;27639;48.674;9.242;2023-02-28T05:03:01;2.20;48.80
21502;DHT22;27639;48.674;9.242;2023-02-28T05:05:27;2.20;48.70
21502;DHT22;27639;48.674;9.242;2023-02-28T05:07:53;2.30;48.50
21502;DHT22;27639;48.674;9.242;2023-02-28T05:10:21;2.30;48.40
21502;DHT22;27639;48.674;9.242;2023-02-28T05:12:47;2.30;48.70
21502;DHT22;27639;48.674;9.242;2023-02-28T05:15:14;2.30;48.70
21502;DHT22;27639;48.674;9.242;2023-02-28T05:17:40;2.30;48.70
21502;DHT22;27639;48.674;9.242;2023-02-28T05:20:07;2.20;48.80
21502;DHT22;27639;48.674;9.242;2023-02-28T05:22:33;2.20;48.90
21502;DHT22;27639;48.674;9.242;2023-02-28T05:24:59;2.20;49.00
21502;DHT22;27639;48.674;9.242;2023-02-28T05:27:25;2.30;48.90
21502;DHT22;27639;48.674;9.242;2023-02-28T05:29:50;2.30;48.90
21502;DHT22;27639;48.674;9.242;2023-02-28T05:32:16;2.30;48.90
21502;DHT22;27639;48.674;9.242;2023-02-28T05:34:41;2.30;49.10
21502;DHT22;27639;48.674;9.242;2023-02-28T05:37:12;2.30;49.10
21502;DHT22;27639;48.674;9.242;2023-02-28T05:39:38;2.30;49.00
21502;DHT22;27639;48.674;9.242;2023-02-28T05:42:04;2.30;49.10
21502;DHT22;27639;48.674;9.242;2023-02-28T05:44:29;2.30;49.00
21502;DHT22;27639;48.674;9.242;2023-02-28T05:46:55;2.30;48.90
21502;DHT22;27639;48.674;9.242;2023-02-28T05:49:21;2.30;48.90
21502;DHT22;27639;48.674;9.242;2023-02-28T05:51:47;2.30;49.00
21502;DHT22;27639;48.674;9.242;2023-02-28T05:54:13;2.30;49.00
21502;DHT22;27639;48.674;9.242;2023-02-28T05:56:38;2.40;49.00
21502;DHT22;27639;48.674;9.242;2023-02-28T05:59:05;2.40;49.00
21502;DHT22;27639;48.674;9.242;2023-02-28T06:01:40;2.40;49.00
21502;DHT22;27639;48.674;9.242;2023-02-28T06:04:09;2.40;49.10
21502;DHT22;27639;48.674;9.242;2023-02-28T06:06:35;2.40;48.90
21502;DHT22;27639;48.674;9.242;2023-02-28T06:09:03;2.50;49.00
21502;DHT22;27639;48.674;9.242;2023-02-28T06:11:29;2.40;49.20
21502;DHT22;27639;48.674;9.242;2023-02-28T06:13:56;2.40;49.00
21502;DHT22;27639;48.674;9.242;2023-02-28T06:16:23;2.40;49.30
21502;DHT22;27639;48.674;9.242;2023-02-28T06:18:48;2.40;49.20
21502;DHT22;27639;48.674;9.242;2023-02-28T06:21:14;2.40;49.00
21502;DHT22;27639;48.674;9.242;2023-02-28T06:23:40;2.40;49.10
21502;DHT22;27639;48.674;9.242;2023-02-28T06:26:05;2.40;48.90
21502;DHT22;27639;48.674;9.242;2023-02-28T06:28:31;2.50;49.00
21502;DHT22;27639;48.674;9.242;2023-02-28T06:30:57;2.50;49.00
21502;DHT22;27639;48.674;9.242;2023-02-28T06:33:22;2.50;49.10
21502;DHT22;27639;48.674;9.242;2023-02-28T06:35:51;2.50;49.00
21502;DHT22;27639;48.674;9.242;2023-02-28T06:38:17;2.50;49.00
21502;DHT22;27639;48.674;9.242;2023-02-28T06:40:43;2.60;49.10
21502;DHT22;27639;48.674;9.242;2023-02-28T06:43:09;2.50;49.00
21502;DHT22;27639;48.674;9.242;2023-02-28T06:45:42;2.60;49.10
21502;DHT22;27639;48.674;9.242;2023-02-28T06:48:08;2.60;49.10
21502;DHT22;27639;48.674;9.242;2023-02-28T06:50:33;2.60;48.90
21502;DHT22;27639;48.674;9.242;2023-02-28T06:52:59;2.60;49.00
21502;DHT22;27639;48.674;9.242;2023-02-28T06:55:25;2.70;49.00
21502;DHT22;27639;48.674;9.242;2023-02-28T06:57:50;2.70;48.90
21502;DHT22;27639;48.674;9.242;2023-02-28T07:00:16;2.70;49.40
21502;DHT22;27639;48.674;9.242;2023-02-28T07:02:42;2.70;48.70
21502;DHT22;27639;48.674;9.242;2023-02-28T07:05:07;2.60;48.90
21502;DHT22;27639;48.674;9.242;2023-02-28T07:07:33;2.60;49.00
21502;DHT22;27639;48.674;9.242;2023-02-28T07:10:01;2.70;48.80
21502;DHT22;27639;48.674;9.242;2023-02-28T07:12:27;2.70;48.80
21502;DHT22;27639;48.674;9.242;2023-02-28T07:14:52;2.70;48.70
21502;DHT22;27639;48.674;9.242;2023-02-28T07:17:18;2.70;48.70
21502;DHT22;27639;48.674;9.242;2023-02-28T07:19:43;2.70;48.70
21502;DHT22;27639;48.674;9.242;2023-02-28T07:22:09;2.80;48.50
21502;DHT22;27639;48.674;9.242;2023-02-28T07:24:34;2.90;48.20
21502;DHT22;27639;48.674;9.242;2023-02-28T07:27:00;2.80;48.20
21502;DHT22;27639;48.674;9.242;2023-02-28T07:29:26;2.80;48.50
21502;DHT22;27639;48.674;9.242;2023-02-28T07:31:52;2.80;48.60
21502;DHT22;27639;48.674;9.242;2023-02-28T07:34:19;2.80;48.40
21502;DHT22;27639;48.674;9.242;2023-02-28T07:36:45;2.80;48.50
21502;DHT22;27639;48.674;9.242;2023-02-28T07:39:10;2.80;48.50
21502;DHT22;27639;48.674;9.242;2023-02-28T07:41:36;2.80;48.50
21502;DHT22;27639;48.674;9.242;2023-02-28T07:44:11;2.90;48.30
21502;DHT22;27639;48.674;9.242;2023-02-28T07:46:36;2.80;48.30
21502;DHT22;27639;48.674;9.242;2023-02-28T07:49:02;2.90;48.50
21502;DHT22;27639;48.674;9.242;2023-02-28T07:51:31;2.90;48.30
21502;DHT22;27639;48.674;9.242;2023-02-28T07:53:57;2.90;48.40
21502;DHT22;27639;48.674;9.242;2023-02-28T07:56:22;2.80;48.60
21502;DHT22;27639;48.674;9.242;2023-02-28T07:58:48;2.90;48.60
21502;DHT22;27639;48.674;9.242;2023-02-28T08:01:14;2.90;48.40
21502;DHT22;27639;48.674;9.242;2023-02-28T08:03:40;2.90;48.40
21502;DHT22;27639;48.674;9.242;2023-02-28T08:06:07;2.90;48.20
21502;DHT22;27639;48.674;9.242;2023-02-28T08:08:33;3.00;47.90
21502;DHT22;27639;48.674;9.242;2023-02-28T08:11:03;3.00;47.90
21502;DHT22;27639;48.674;9.242;2023-02-28T08:13:29;2.90;48.00
21502;DHT22;27639;48.674;9.242;2023-02-28T08:15:55;2.90;48.10
21502;DHT22;27639;48.674;9.242;2023-02-28T08:18:21;3.00;48.30
21502;DHT22;27639;48.674;9.242;2023-02-28T08:20:48;3.00;48.10
21502;DHT22;27639;48.674;9.242;2023-02-28T08:23:13;3.00;48.20
21502;DHT22;27639;48.674;9.242;2023-02-28T08:25:39;3.10;48.10
21502;DHT22;27639;48.674;9.242;2023-02-28T08:28:05;3.10;47.80
21502;DHT22;27639;48.674;9.242;2023-02-28T08:30:30;3.10;47.90
21502;DHT22;27639;48.674;9.242;2023-02-28T08:32:56;3.00;48.00
21502;DHT22;27639;48.674;9.242;2023-02-28T08:35:22;3.10;47.70
21502;DHT22;27639;48.674;9.242;2023-02-28T08:37:48;3.10;47.70
21502;DHT22;27639;48.674;9.242;2023-02-28T08:40:15;3.20;47.60
21502;DHT22;27639;48.674;9.242;2023-02-28T08:42:49;3.20;47.40
21502;DHT22;27639;48.674;9.242;2023-02-28T08:45:15;3.10;47.70
21502;DHT22;27639;48.674;9.242;2023-02-28T08:47:41;3.10;47.40
21502;DHT22;27639;48.674;9.242;2023-02-28T08:50:07;3.10;47.70
21502;DHT22;27639;48.674;9.242;2023-02-28T08:52:33;3.10;47.50
21502;DHT22;27639;48.674;9.242;2023-02-28T08:54:59;3.10;47.90
21502;DHT22;27639;48.674;9.242;2023-02-28T08:57:25;3.10;47.10
21502;DHT22;27639;48.674;9.242;2023-02-28T08:59:52;3.10;47.40
21502;DHT22;27639;48.674;9.242;2023-02-28T09:02:17;3.20;47.20
21502;DHT22;27639;48.674;9.242;2023-02-28T09:04:43;3.10;47.30
21502;DHT22;27639;48.674;9.242;2023-02-28T09:07:11;3.20;47.00
21502;DHT22;27639;48.674;9.242;2023-02-28T09:09:37;3.30;46.60
21502;DHT22;27639;48.674;9.242;2023-02-28T09:12:03;3.20;47.00
21502;DHT22;27639;48.674;9.242;2023-02-28T09:14:29;3.10;47.30
21502;DHT22;27639;48.674;9.242;2023-02-28T09:16:54;3.20;47.30
21502;DHT22;27639;48.674;9.242;2023-02-28T09:19:20;3.30;47.00
21502;DHT22;27639;48.674;9.242;2023-02-28T09:21:46;3.30;47.20
21502;DHT22;27639;48.674;9.242;2023-02-28T09:24:11;3.30;46.90
21502;DHT22;27639;48.674;9.242;2023-02-28T09:26:39;3.40;46.60
21502;DHT22;27639;48.674;9.242;2023-02-28T09:29:05;3.50;46.60
21502;DHT22;27639;48.674;9.242;2023-02-28T09:31:32;3.50;46.10
21502;DHT22;27639;48.674;9.242;2023-02-28T09:33:58;3.50;46.10
21502;DHT22;27639;48.674;9.242;2023-02-28T09:36:25;3.50;46.10
21502;DHT22;27639;48.674;9.242;2023-02-28T09:38:52;3.50;46.10
21502;DHT22;27639;48.674;9.242;2023-02-28T09:41:39;3.50;46.00
21502;DHT22;27639;48.674;9.242;2023-02-28T09:46:48;3.50;46.10
21502;DHT22;27639;48.674;9.242;2023-02-28T09:49:18;3.60;46.10
21502;DHT22;27639;48.674;9.242;2023-02-28T09:52:01;3.50;46.10
21502;DHT22;27639;48.674;9.242;2023-02-28T09:54:30;3.50;46.80
21502;DHT22;27639;48.674;9.242;2023-02-28T09:57:01;3.60;46.20
21502;DHT22;27639;48.674;9.242;2023-02-28T10:04:45;3.70;46.90
21502;DHT22;27639;48.674;9.242;2023-02-28T10:10:24;3.80;46.40
21502;DHT22;27639;48.674;9.242;2023-02-28T10:12:54;3.90;46.40
21502;DHT22;27639;48.674;9.242;2023-02-28T10:15:24;3.90;46.40
21502;DHT22;27639;48.674;9.242;2023-02-28T10:17:55;4.00;45.90
21502;DHT22;27639;48.674;9.242;2023-02-28T10:20:24;4.00;46.40
21502;DHT22;27639;48.674;9.242;2023-02-28T10:25:35;4.10;45.40
21502;DHT22;27639;48.674;9.242;2023-02-28T10:28:10;4.10;45.30
21502;DHT22;27639;48.674;9.242;2023-02-28T10:30:46;4.10;45.40
21502;DHT22;27639;48.674;9.242;2023-02-28T10:35:52;4.10;45.50
21502;DHT22;27639;48.674;9.242;2023-02-28T10:38:25;4.10;45.50
21502;DHT22;27639;48.674;9.242;2023-02-28T10:40:51;4.20;45.60
21502;DHT22;27639;48.674;9.242;2023-02-28T10:50:52;4.50;45.10
21502;DHT22;27639;48.674;9.242;2023-02-28T10:53:30;4.60;44.90
21502;DHT22;27639;48.674;9.242;2023-02-28T10:59:02;4.80;44.70
21502;DHT22;27639;48.674;9.242;2023-02-28T11:01:41;4.80;44.00
21502;DHT22;27639;48.674;9.242;2023-02-28T11:07:22;4.90;44.30
21502;DHT22;27639;48.674;9.242;2023-02-28T11:09:54;4.80;44.30
21502;DHT22;27639;48.674;9.242;2023-02-28T11:12:29;4.80;44.20
21502;DHT22;27639;48.674;9.242;2023-02-28T11:15:03;4.90;44.30
21502;DHT22;27639;48.674;9.242;2023-02-28T11:17:31;5.00;44.00
21502;DHT22;27639;48.674;9.242;2023-02-28T11:20:01;5.10;43.70
21502;DHT22;27639;48.674;9.242;2023-02-28T11:22:32;4.90;44.20
21502;DHT22;27639;48.674;9.242;2023-02-28T11:25:16;5.00;44.30
21502;DHT22;27639;48.674;9.242;2023-02-28T11:27:50;5.00;44.10
21502;DHT22;27639;48.674;9.242;2023-02-28T11:30:27;4.90;44.20
21502;DHT22;27639;48.674;9.242;2023-02-28T11:32:53;4.80;44.50
21502;DHT22;27639;48.674;9.242;2023-02-28T11:35:37;4.80;45.10
21502;DHT22;27639;48.674;9.242;2023-02-28T11:38:09;4.90;45.30
21502;DHT22;27639;48.674;9.242;2023-02-28T11:51:40;5.20;45.00
21502;DHT22;27639;48.674;9.242;2023-02-28T11:57:00;5.70;43.70
21502;DHT22;27639;48.674;9.242;2023-02-28T11:59:59;5.90;43.50
21502;DHT22;27639;48.674;9.242;2023-02-28T12:02:59;5.90;43.20
21502;DHT22;27639;48.674;9.242;2023-02-28T12:08:57;6.00;43.20
21502;DHT22;27639;48.674;9.242;2023-02-28T12:11:16;6.10;42.80
21502;DHT22;27639;48.674;9.242;2023-02-28T12:22:05;6.40;42.30
21502;DHT22;27639;48.674;9.242;2023-02-28T12:27:12;6.60;42.40
21502;DHT22;27639;48.674;9.242;2023-02-28T12:29:49;6.70;42.20
21502;DHT22;27639;48.674;9.242;2023-02-28T12:35:01;6.80;42.20
21502;DHT22;27639;48.674;9.242;2023-02-28T12:37:37;6.90;42.00
21502;DHT22;27639;48.674;9.242;2023-02-28T12:40:11;7.00;41.80
21502;DHT22;27639;48.674;9.242;2023-02-28T12:42:40;7.00;42.40
21502;DHT22;27639;48.674;9.242;2023-02-28T12:48:08;7.40;41.90
21502;DHT22;27639;48.674;9.242;2023-02-28T12:50:33;7.60;42.50
21502;DHT22;27639;48.674;9.242;2023-02-28T12:58:36;8.10;41.30
21502;DHT22;27639;48.674;9.242;2023-02-28T13:09:28;8.40;40.70
21502;DHT22;27639;48.674;9.242;2023-02-28T13:11:55;8.40;40.60
21502;DHT22;27639;48.674;9.242;2023-02-28T13:14:35;8.50;40.50
21502;DHT22;27639;48.674;9.242;2023-02-28T13:19:45;8.70;39.50
21502;DHT22;27639;48.674;9.242;2023-02-28T13:24:56;8.70;39.10
21502;DHT22;27639;48.674;9.242;2023-02-28T13:27:41;8.60;39.50
21502;DHT22;27639;48.674;9.242;2023-02-28T13:35:46;8.90;39.60
21502;DHT22;27639;48.674;9.242;2023-02-28T13:38:17;9.00;40.30
21502;DHT22;27639;48.674;9.242;2023-02-28T13:40:46;9.10;39.60
21502;DHT22;27639;48.674;9.242;2023-02-28T13:43:16;9.20;39.60
21502;DHT22;27639;48.674;9.242;2023-02-28T13:46:06;9.30;39.30
21502;DHT22;27639;48.674;9.242;2023-02-28T13:48:33;9.40;38.60
21502;DHT22;27639;48.674;9.242;2023-02-28T13:50:58;9.40;38.40
21502;DHT22;27639;48.674;9.242;2023-02-28T13:56:19;9.50;38.70
21502;DHT22;27639;48.674;9.242;2023-02-28T13:58:54;9.50;39.20
21502;DHT22;27639;48.674;9.242;2023-02-28T14:06:32;9.70;38.90
21502;DHT22;27639;48.674;9.242;2023-02-28T14:11:45;9.80;37.80
21502;DHT22;27639;48.674;9.242;2023-02-28T14:15:23;9.70;38.10
21502;DHT22;27639;48.674;9.242;2023-02-28T14:17:17;9.70;37.90
21502;DHT22;27639;48.674;9.242;2023-02-28T14:19:46;9.80;38.40
21502;DHT22;27639;48.674;9.242;2023-02-28T14:25:39;10.00;37.40
21502;DHT22;27639;48.674;9.242;2023-02-28T14:31:07;10.00;37.00
21502;DHT22;27639;48.674;9.242;2023-02-28T14:33:39;10.00;36.70
21502;DHT22;27639;48.674;9.242;2023-02-28T14:38:50;9.90;38.00
21502;DHT22;27639;48.674;9.242;2023-02-28T14:41:38;10.00;36.90
21502;DHT22;27639;48.674;9.242;2023-02-28T14:44:21;10.00;36.70
21502;DHT22;27639;48.674;9.242;2023-02-28T14:46:58;9.90;37.20
21502;DHT22;27639;48.674;9.242;2023-02-28T14:49:26;9.90;37.50
21502;DHT22;27639;48.674;9.242;2023-02-28T14:54:36;9.90;37.50
21502;DHT22;27639;48.674;9.242;2023-02-28T14:57:02;9.90;38.60
21502;DHT22;27639;48.674;9.242;2023-02-28T14:59:34;10.00;36.70
21502;DHT22;27639;48.674;9.242;2023-02-28T15:02:21;9.90;37.50
21502;DHT22;27639;48.674;9.242;2023-02-28T15:04:56;9.90;37.40
21502;DHT22;27639;48.674;9.242;2023-02-28T15:07:23;9.90;37.30
21502;DHT22;27639;48.674;9.242;2023-02-28T15:10:24;9.90;37.20
21502;DHT22;27639;48.674;9.242;2023-02-28T15:13:16;9.80;37.10
21502;DHT22;27639;48.674;9.242;2023-02-28T15:20:56;9.60;37.30
21502;DHT22;27639;48.674;9.242;2023-02-28T15:23:24;9.60;37.10
21502;DHT22;27639;48.674;9.242;2023-02-28T15:25:51;9.50;37.10
21502;DHT22;27639;48.674;9.242;2023-02-28T15:28:20;9.40;37.40
21502;DHT22;27639;48.674;9.242;2023-02-28T15:30:58;9.30;37.50
21502;DHT22;27639;48.674;9.242;2023-02-28T15:33:33;9.30;37.50
21502;DHT22;27639;48.674;9.242;2023-02-28T15:36:16;9.30;37.60
21502;DHT22;27639;48.674;9.242;2023-02-28T15:38:44;9.20;37.60
21502;DHT22;27639;48.674;9.242;2023-02-28T15:41:30;9.10;38.10
21502;DHT22;27639;48.674;9.242;2023-02-28T15:46:54;9.00;38.00
21502;DHT22;27639;48.674;9.242;2023-02-28T15:49:21;8.90;38.00
21502;DHT22;27639;48.674;9.242;2023-02-28T15:51:49;8.90;38.00
21502;DHT22;27639;48.674;9.242;2023-02-28T15:54:30;8.90;38.30
21502;DHT22;27639;48.674;9.242;2023-02-28T15:56:57;8.90;38.40
21502;DHT22;27639;48.674;9.242;2023-02-28T15:59:28;8.90;38.40
21502;DHT22;27639;48.674;9.242;2023-02-28T16:04:35;8.90;38.30
21502;DHT22;27639;48.674;9.242;2023-02-28T16:07:03;8.80;38.30
21502;DHT22;27639;48.674;9.242;2023-02-28T16:09:29;8.80;38.30
21502;DHT22;27639;48.674;9.242;2023-02-28T16:11:59;8.70;38.00
21502;DHT22;27639;48.674;9.242;2023-02-28T16:14:28;8.70;38.40
21502;DHT22;27639;48.674;9.242;2023-02-28T16:17:02;8.60;38.60
21502;DHT22;27639;48.674;9.242;2023-02-28T16:19:28;8.60;38.60
21502;DHT22;27639;48.674;9.242;2023-02-28T16:21:54;8.50;38.70
21502;DHT22;27639;48.674;9.242;2023-02-28T16:24:20;8.50;38.70
21502;DHT22;27639;48.674;9.242;2023-02-28T16:26:47;8.40;38.70
21502;DHT22;27639;48.674;9.242;2023-02-28T16:29:23;8.30;38.70
21502;DHT22;27639;48.674;9.242;2023-02-28T16:31:49;8.40;38.70
21502;DHT22;27639;48.674;9.242;2023-02-28T16:34:15;8.30;38.90
21502;DHT22;27639;48.674;9.242;2023-02-28T16:36:40;8.20;38.80
21502;DHT22;27639;48.674;9.242;2023-02-28T16:39:06;8.20;38.80
21502;DHT22;27639;48.674;9.242;2023-02-28T16:41:33;8.10;39.00
21502;DHT22;27639;48.674;9.242;2023-02-28T16:43:59;8.10;39.20
21502;DHT22;27639;48.674;9.242;2023-02-28T16:46:32;8.00;39.20
21502;DHT22;27639;48.674;9.242;2023-02-28T16:48:58;7.90;39.30
21502;DHT22;27639;48.674;9.242;2023-02-28T16:51:24;7.90;39.50
21502;DHT22;27639;48.674;9.242;2023-02-28T16:53:49;7.80;39.60
21502;DHT22;27639;48.674;9.242;2023-02-28T16:56:24;7.80;39.60
21502;DHT22;27639;48.674;9.242;2023-02-28T16:58:51;7.80;39.60
21502;DHT22;27639;48.674;9.242;2023-02-28T17:01:18;7.80;39.70
21502;DHT22;27639;48.674;9.242;2023-02-28T17:03:50;7.80;39.80
21502;DHT22;27639;48.674;9.242;2023-02-28T17:06:25;7.70;39.90
21502;DHT22;27639;48.674;9.242;2023-02-28T17:08:53;7.60;39.90
21502;DHT22;27639;48.674;9.242;2023-02-28T17:11:19;7.60;40.00
21502;DHT22;27639;48.674;9.242;2023-02-28T17:13:45;7.50;40.10
21502;DHT22;27639;48.674;9.242;2023-02-28T17:16:29;7.40;40.10
21502;DHT22;27639;48.674;9.242;2023-02-28T17:19:02;7.40;40.10
21502;DHT22;27639;48.674;9.242;2023-02-28T17:21:28;7.40;40.20
21502;DHT22;27639;48.674;9.242;2023-02-28T17:23:54;7.30;40.30
21502;DHT22;27639;48.674;9.242;2023-02-28T17:26:21;7.20;40.40
21502;DHT22;27639;48.674;9.242;2023-02-28T17:28:50;7.20;40.50
21502;DHT22;27639;48.674;9.242;2023-02-28T17:31:16;7.20;40.60
21502;DHT22;27639;48.674;9.242;2023-02-28T17:33:42;7.10;41.30
21502;DHT22;27639;48.674;9.242;2023-02-28T17:36:14;7.10;40.70
21502;DHT22;27639;48.674;9.242;2023-02-28T17:38:40;7.10;40.70
21502;DHT22;27639;48.674;9.242;2023-02-28T17:41:06;7.00;40.80
21502;DHT22;27639;48.674;9.242;2023-02-28T17:43:32;7.00;40.90
21502;DHT22;27639;48.674;9.242;2023-02-28T17:45:57;6.90;40.90
21502;DHT22;27639;48.674;9.242;2023-02-28T17:48:24;6.90;41.00
21502;DHT22;27639;48.674;9.242;2023-02-28T17:50:49;6.80;41.10
21502;DHT22;27639;48.674;9.242;2023-02-28T17:53:15;6.80;41.20
21502;DHT22;27639;48.674;9.242;2023-02-28T17:55:40;6.80;41.20
21502;DHT22;27639;48.674;9.242;2023-02-28T17:58:09;6.70;41.20
21502;DHT22;27639;48.674;9.242;2023-02-28T18:00:36;6.70;41.20
21502;DHT22;27639;48.674;9.242;2023-02-28T18:03:03;6.60;41.10
21502;DHT22;27639;48.674;9.242;2023-02-28T18:05:29;6.60;41.40
21502;DHT22;27639;48.674;9.242;2023-02-28T18:07:55;6.60;41.40
21502;DHT22;27639;48.674;9.242;2023-02-28T18:10:22;6.60;41.50
21502;DHT22;27639;48.674;9.242;2023-02-28T18:12:49;6.50;41.60
21502;DHT22;27639;48.674;9.242;2023-02-28T18:15:15;6.50;41.70
21502;DHT22;27639;48.674;9.242;2023-02-28T18:17:42;6.50;41.70
21502;DHT22;27639;48.674;9.242;2023-02-28T18:20:09;6.40;41.70
21502;DHT22;27639;48.674;9.242;2023-02-28T18:22:35;6.40;41.60
21502;DHT22;27639;48.674;9.242;2023-02-28T18:25:02;6.30;41.80
21502;DHT22;27639;48.674;9.242;2023-02-28T18:27:28;6.30;41.90
21502;DHT22;27639;48.674;9.242;2023-02-28T18:29:53;6.20;42.00
21502;DHT22;27639;48.674;9.242;2023-02-28T18:32:19;6.20;42.10
21502;DHT22;27639;48.674;9.242;2023-02-28T18:34:44;6.10;42.10